Terminal Aerodrome Forecast
Issued by NWS Sioux Falls, SD

Home | Current Version | Previous Version | Graphics & Text | Print | Product List | Glossary On
Versions: 1 2 3 4 5 6 7 8 9 10 11 12 13 14 15 16 17 18 19 20 21 22 23 24 25 26 27 28 29 30 31 32 33
000
FTUS43 KFSD 230549
TAFSUX
TAF
KSUX 230549Z 2306/2406 16014KT P6SM BKN200 WS020/18045KT
     FM230800 17013KT P6SM OVC100
     FM231000 17012KT P6SM VCTS OVC060CB
     FM231200 16011KT P6SM SHRA OVC050
      TEMPO 2312/2314 4SM TS OVC035CB
     FM231500 19012KT P6SM BKN025
     FM231900 19012KT P6SM OVC035 PROB30 2320/2322 6SM TSRA OVC025CB
     FM240100 17006KT P6SM BKN060=

USA.gov is the U.S. government's official web portal to all federal, state and local government web resources and services.